createdAt,value
2019-05-21T00:00:45.465Z,68.90
2019-05-21T00:03:13.876Z,69.80
2019-05-21T00:05:42.539Z,64.83
2019-05-21T00:08:11.229Z,64.20
2019-05-21T00:10:39.922Z,61.70
2019-05-21T00:13:08.355Z,69.70
2019-05-21T00:15:36.737Z,62.20
2019-05-21T00:18:05.530Z,57.03
2019-05-21T00:20:33.951Z,58.77
2019-05-21T00:23:02.375Z,61.70
2019-05-21T00:25:31.245Z,55.53
2019-05-21T00:28:34.406Z,56.50
2019-05-21T00:31:39.362Z,56.63
2019-05-21T00:34:44.704Z,55.03
2019-05-21T00:37:50.124Z,52.10
2019-05-21T00:40:55.419Z,52.77
2019-05-21T00:43:26.861Z,53.00
2019-05-21T00:45:55.267Z,53.07
2019-05-21T00:48:24.146Z,51.03
2019-05-21T00:50:52.829Z,48.67
2019-05-21T00:53:21.233Z,49.33
2019-05-21T00:55:49.898Z,46.80
2019-05-21T00:58:18.328Z,49.93
2019-05-21T01:00:46.734Z,47.70
2019-05-21T01:03:15.359Z,43.53
2019-05-21T01:05:43.782Z,39.87
2019-05-21T01:08:12.448Z,43.83
2019-05-21T01:10:40.865Z,42.20
2019-05-21T01:13:09.256Z,42.87
2019-05-21T01:15:37.645Z,43.23
2019-05-21T01:18:06.117Z,40.50
2019-05-21T01:20:34.524Z,42.63
2019-05-21T01:23:02.933Z,41.27
2019-05-21T01:25:31.627Z,44.33
2019-05-21T01:28:00.028Z,43.07
2019-05-21T01:30:28.534Z,43.87
2019-05-21T01:32:57.198Z,42.43
2019-05-21T01:35:25.691Z,46.43
2019-05-21T01:37:54.077Z,45.70
2019-05-21T01:40:22.469Z,44.53
2019-05-21T01:42:50.957Z,45.13
2019-05-21T01:45:19.430Z,46.70
2019-05-21T01:47:47.823Z,47.67
2019-05-21T01:50:16.317Z,44.20
2019-05-21T01:52:44.790Z,45.77
2019-05-21T01:55:13.265Z,46.03
2019-05-21T01:57:41.764Z,41.63
2019-05-21T02:00:10.516Z,44.70
2019-05-21T02:02:39.151Z,45.13
2019-05-21T02:05:07.623Z,43.20
2019-05-21T02:07:36.811Z,42.50
2019-05-21T02:10:08.363Z,41.33
2019-05-21T02:12:36.758Z,41.80
2019-05-21T02:15:06.498Z,40.97
2019-05-21T02:17:34.898Z,41.73
2019-05-21T02:20:03.836Z,40.60
2019-05-21T02:22:32.525Z,41.20
2019-05-21T02:25:01.327Z,43.00
2019-05-21T02:27:29.823Z,41.80
2019-05-21T02:29:58.694Z,41.27
2019-05-21T02:32:27.387Z,39.90
2019-05-21T02:34:55.804Z,40.03
2019-05-21T02:37:24.189Z,41.03
2019-05-21T02:39:52.574Z,42.53
2019-05-21T02:42:20.976Z,41.27
2019-05-21T02:44:53.642Z,41.93
2019-05-21T02:47:19.939Z,45.23
2019-05-21T02:49:48.580Z,44.13
2019-05-21T02:52:16.973Z,45.00
2019-05-21T02:54:45.377Z,43.20
2019-05-21T02:57:13.792Z,43.93
2019-05-21T02:59:43.979Z,43.23
2019-05-21T03:02:29.270Z,46.00
2019-05-21T03:04:57.673Z,46.33
2019-05-21T03:07:26.283Z,46.80
2019-05-21T03:09:54.753Z,45.67
2019-05-21T03:12:23.156Z,46.57
2019-05-21T03:14:51.803Z,49.03
2019-05-21T03:17:20.497Z,47.93
2019-05-21T03:19:48.893Z,45.93
2019-05-21T03:22:17.572Z,46.80
2019-05-21T03:24:45.957Z,48.20
2019-05-21T03:27:14.368Z,45.70
2019-05-21T03:29:42.748Z,44.73
2019-05-21T03:32:11.134Z,46.83
2019-05-21T03:34:39.902Z,48.73
2019-05-21T03:37:08.371Z,45.80
2019-05-21T03:39:36.736Z,48.80
2019-05-21T03:42:05.546Z,47.87
2019-05-21T03:44:34.552Z,45.80
2019-05-21T03:47:02.940Z,46.90
2019-05-21T03:49:31.938Z,47.63
2019-05-21T03:52:00.417Z,46.77
2019-05-21T03:54:28.803Z,44.27
2019-05-21T03:56:57.215Z,45.50
2019-05-21T03:59:25.605Z,46.77
2019-05-21T04:01:54.016Z,44.50
2019-05-21T04:04:22.746Z,46.57
2019-05-21T04:06:52.568Z,44.90
2019-05-21T04:09:21.179Z,45.13
2019-05-21T04:11:53.053Z,45.57
2019-05-21T04:14:33.508Z,45.83
2019-05-21T04:17:03.910Z,44.30
2019-05-21T04:19:33.938Z,46.87
2019-05-21T04:22:02.342Z,45.47
2019-05-21T04:24:30.735Z,47.70
2019-05-21T04:26:59.142Z,48.57
2019-05-21T04:29:27.879Z,46.97
2019-05-21T04:31:56.554Z,45.57
2019-05-21T04:34:25.032Z,43.00
2019-05-21T04:37:09.376Z,46.03
2019-05-21T04:39:23.617Z,43.90
2019-05-21T04:41:51.951Z,44.53
2019-05-21T04:44:20.474Z,46.60
2019-05-21T04:46:48.861Z,49.67
2019-05-21T04:49:17.305Z,57.60
2019-05-21T04:51:45.734Z,52.47
2019-05-21T04:54:14.097Z,54.00
2019-05-21T04:56:42.491Z,56.80
2019-05-21T04:59:10.894Z,73.93
2019-05-21T05:01:39.321Z,56.17
2019-05-21T05:04:07.867Z,71.73
2019-05-21T05:06:36.593Z,77.33
2019-05-21T05:09:06.919Z,64.27
2019-05-21T05:11:35.493Z,76.40
2019-05-21T05:14:03.953Z,74.63
2019-05-21T05:16:32.674Z,128.40
2019-05-21T05:19:02.582Z,70.17
2019-05-21T05:21:31.000Z,68.43
2019-05-21T05:23:59.495Z,76.13
2019-05-21T05:26:28.665Z,86.17
2019-05-21T05:28:57.061Z,84.17
2019-05-21T05:31:25.555Z,92.63
2019-05-21T05:33:53.963Z,78.07
2019-05-21T05:36:22.348Z,88.03
2019-05-21T05:38:50.744Z,85.13
2019-05-21T05:41:19.129Z,89.53
2019-05-21T05:43:47.534Z,105.47
2019-05-21T05:46:16.210Z,83.23
2019-05-21T05:48:46.279Z,87.27
2019-05-21T05:51:14.912Z,93.50
2019-05-21T05:53:58.189Z,88.73
2019-05-21T05:56:28.540Z,105.87
2019-05-21T05:58:57.011Z,93.47
2019-05-21T06:01:26.437Z,85.60
2019-05-21T06:03:54.830Z,85.20
2019-05-21T06:06:23.224Z,95.30
2019-05-21T06:08:59.475Z,81.63
2019-05-21T06:11:28.222Z,87.57
2019-05-21T06:13:56.850Z,97.33
2019-05-21T06:16:26.891Z,95.97
2019-05-21T06:18:58.472Z,79.90
2019-05-21T06:21:26.879Z,97.87
2019-05-21T06:23:55.547Z,90.30
2019-05-21T06:26:24.002Z,85.67
2019-05-21T06:28:52.411Z,81.97
2019-05-21T06:31:20.804Z,79.63
2019-05-21T06:33:49.436Z,79.17
2019-05-21T06:36:18.104Z,75.93
2019-05-21T06:38:46.491Z,75.40
2019-05-21T06:41:15.143Z,77.30
2019-05-21T06:43:43.673Z,74.67
2019-05-21T06:46:12.143Z,76.90
2019-05-21T06:48:40.830Z,74.40
2019-05-21T06:51:12.120Z,72.30
2019-05-21T06:53:40.516Z,74.40
2019-05-21T06:56:09.238Z,75.07
2019-05-21T06:58:37.629Z,76.93
2019-05-21T07:01:06.309Z,72.40
2019-05-21T07:03:35.001Z,64.40
2019-05-21T07:06:03.421Z,69.80
2019-05-21T07:08:35.081Z,76.27
2019-05-21T07:11:02.305Z,74.60
2019-05-21T07:13:31.311Z,80.40
2019-05-21T07:16:00.022Z,84.50
2019-05-21T07:18:28.388Z,77.07
2019-05-21T07:20:57.017Z,75.23
2019-05-21T07:23:25.401Z,74.73
2019-05-21T07:25:53.961Z,79.37
2019-05-21T07:28:22.366Z,84.23
2019-05-21T07:30:51.057Z,83.40
2019-05-21T07:33:19.460Z,88.00
2019-05-21T07:35:47.854Z,80.23
2019-05-21T07:38:16.273Z,77.57
2019-05-21T07:40:44.707Z,69.37
2019-05-21T07:43:13.320Z,61.17
2019-05-21T07:45:42.016Z,65.87
2019-05-21T07:48:10.439Z,76.20
2019-05-21T07:50:39.197Z,83.90
2019-05-21T07:53:07.698Z,78.10
2019-05-21T07:55:36.370Z,80.53
2019-05-21T07:58:04.841Z,67.17
2019-05-21T08:00:33.550Z,76.90
2019-05-21T08:03:01.959Z,74.60
2019-05-21T08:05:30.375Z,85.27
2019-05-21T08:07:59.109Z,68.27
2019-05-21T08:10:27.792Z,75.60
2019-05-21T08:12:56.195Z,84.10
2019-05-21T08:15:24.642Z,80.10
2019-05-21T08:17:53.005Z,76.20
2019-05-21T08:20:22.982Z,89.93
2019-05-21T08:22:51.388Z,82.03
2019-05-21T08:25:20.038Z,81.27
2019-05-21T08:27:48.437Z,88.17
2019-05-21T08:30:17.152Z,82.60
2019-05-21T08:32:45.626Z,85.80
2019-05-21T08:35:14.350Z,82.37
2019-05-21T08:37:42.764Z,75.10
2019-05-21T08:40:12.353Z,74.83
2019-05-21T08:42:40.732Z,72.20
2019-05-21T08:45:10.074Z,70.03
2019-05-21T08:47:38.765Z,66.40
2019-05-21T08:50:08.201Z,57.47
2019-05-21T08:52:36.590Z,58.40
2019-05-21T08:55:07.043Z,57.43
2019-05-21T08:57:35.466Z,56.43
2019-05-21T09:00:10.239Z,55.20
2019-05-21T09:02:38.982Z,54.87
2019-05-21T09:05:07.989Z,56.33
2019-05-21T09:07:36.495Z,56.30
2019-05-21T09:10:06.860Z,56.10
2019-05-21T09:12:35.250Z,56.90
2019-05-21T09:15:04.428Z,57.50
2019-05-21T09:17:33.064Z,52.70
2019-05-21T09:20:01.544Z,51.23
2019-05-21T09:22:30.449Z,54.63
2019-05-21T09:24:59.237Z,51.23
2019-05-21T09:27:27.690Z,50.33
2019-05-21T09:29:56.130Z,49.00
2019-05-21T09:32:24.532Z,48.50
2019-05-21T09:34:53.308Z,49.97
2019-05-21T09:37:21.699Z,51.73
2019-05-21T09:39:50.361Z,49.43
2019-05-21T09:42:19.069Z,50.77
2019-05-21T09:44:47.488Z,56.37
2019-05-21T09:47:16.127Z,55.87
2019-05-21T09:49:44.576Z,60.37
2019-05-21T09:52:12.924Z,59.73
2019-05-21T09:54:41.692Z,59.67
2019-05-21T09:57:11.785Z,59.17
2019-05-21T09:59:41.800Z,60.60
2019-05-21T10:02:20.765Z,58.00
2019-05-21T10:04:49.187Z,55.53
2019-05-21T10:07:17.821Z,54.23
2019-05-21T10:09:46.263Z,51.00
2019-05-21T10:12:14.878Z,48.20
2019-05-21T10:14:43.286Z,48.37
2019-05-21T10:17:11.966Z,47.63
2019-05-21T10:19:40.580Z,47.90
2019-05-21T10:22:09.378Z,48.83
2019-05-21T10:24:38.349Z,46.53
2019-05-21T10:27:06.995Z,48.10
2019-05-21T10:29:35.393Z,47.20
2019-05-21T10:32:04.056Z,49.17
2019-05-21T10:34:32.472Z,49.63
2019-05-21T10:37:00.894Z,52.93
2019-05-21T10:39:29.304Z,51.93
2019-05-21T10:41:57.706Z,51.90
2019-05-21T10:44:26.437Z,50.30
2019-05-21T10:46:54.832Z,51.10
2019-05-21T10:49:23.233Z,51.63
2019-05-21T10:51:51.631Z,51.70
2019-05-21T10:54:20.373Z,47.90
2019-05-21T10:56:49.006Z,48.60
2019-05-21T10:59:17.645Z,49.07
2019-05-21T11:01:50.405Z,46.70
2019-05-21T11:04:20.497Z,47.33
2019-05-21T11:06:49.115Z,48.50
2019-05-21T11:09:19.229Z,47.87
2019-05-21T11:11:47.633Z,46.97
2019-05-21T11:14:16.558Z,46.67
2019-05-21T11:16:44.959Z,47.70
2019-05-21T11:19:13.534Z,51.20
2019-05-21T11:21:42.008Z,54.17
2019-05-21T11:24:10.432Z,58.97
2019-05-21T11:26:38.914Z,57.93
2019-05-21T11:29:07.318Z,57.07
2019-05-21T11:31:35.793Z,61.30
2019-05-21T11:34:04.745Z,63.07
2019-05-21T11:36:33.126Z,64.27
2019-05-21T11:39:01.809Z,63.37
2019-05-21T11:41:30.500Z,64.37
2019-05-21T11:43:58.901Z,66.93
2019-05-21T11:46:27.295Z,72.60
2019-05-21T11:48:55.787Z,74.33
2019-05-21T11:51:24.200Z,81.23
2019-05-21T11:53:52.834Z,72.27
2019-05-21T11:56:21.236Z,71.30
2019-05-21T11:58:49.629Z,63.40
2019-05-21T12:01:18.099Z,65.60
2019-05-21T12:03:46.776Z,67.67
2019-05-21T12:06:15.156Z,62.93
2019-05-21T12:08:56.198Z,66.20
2019-05-21T12:11:13.799Z,59.43
2019-05-21T12:13:42.547Z,59.53
2019-05-21T12:16:10.952Z,57.80
2019-05-21T12:18:39.642Z,63.17
2019-05-21T12:21:08.137Z,61.33
2019-05-21T12:23:36.534Z,64.27
2019-05-21T12:26:05.289Z,65.63
2019-05-21T12:28:33.942Z,65.07
2019-05-21T12:31:02.370Z,67.53
2019-05-21T12:33:34.708Z,73.43
2019-05-21T12:36:00.936Z,72.40
2019-05-21T12:38:29.403Z,69.23
2019-05-21T12:40:57.921Z,66.63
2019-05-21T12:43:26.316Z,78.03
2019-05-21T12:45:54.800Z,77.10
2019-05-21T12:48:23.468Z,79.20
2019-05-21T12:50:52.010Z,85.20
2019-05-21T12:53:20.460Z,83.30
2019-05-21T12:55:48.988Z,81.47
2019-05-21T12:58:17.446Z,84.27
2019-05-21T13:00:45.893Z,79.53
2019-05-21T13:03:14.347Z,81.93
2019-05-21T13:05:42.831Z,87.47
2019-05-21T13:08:11.340Z,74.40
2019-05-21T13:10:39.774Z,83.93
2019-05-21T13:13:08.382Z,80.67
2019-05-21T13:15:40.895Z,75.00
2019-05-21T13:18:09.934Z,66.20
2019-05-21T13:20:38.778Z,71.70
2019-05-21T13:23:07.342Z,73.20
2019-05-21T13:25:36.806Z,72.13
2019-05-21T13:28:05.475Z,69.07
2019-05-21T13:30:33.960Z,72.90
2019-05-21T13:33:02.489Z,70.43
2019-05-21T13:35:31.027Z,73.00
2019-05-21T13:38:00.875Z,82.40
2019-05-21T13:40:31.596Z,76.97
2019-05-21T13:43:03.273Z,84.80
2019-05-21T13:45:31.707Z,81.23
2019-05-21T13:48:00.084Z,86.73
2019-05-21T13:50:28.631Z,96.87
2019-05-21T13:52:57.404Z,86.27
2019-05-21T13:55:25.921Z,79.73
2019-05-21T13:57:54.384Z,81.40
2019-05-21T14:00:30.718Z,83.87
2019-05-21T14:03:02.093Z,86.60
2019-05-21T14:05:31.157Z,91.03
2019-05-21T14:08:04.718Z,81.63
2019-05-21T14:10:33.662Z,82.60
2019-05-21T14:13:02.537Z,81.33
2019-05-21T14:15:30.948Z,77.50
2019-05-21T14:18:02.537Z,95.20
2019-05-21T14:20:31.200Z,80.10
2019-05-21T14:22:59.600Z,82.70
2019-05-21T14:25:32.481Z,89.53
2019-05-21T14:28:06.192Z,87.00
2019-05-21T14:30:32.723Z,85.07
2019-05-21T14:33:02.098Z,88.50
2019-05-21T14:35:30.589Z,83.60
2019-05-21T14:37:59.071Z,79.67
2019-05-21T14:40:32.807Z,92.70
2019-05-21T14:43:00.930Z,84.70
2019-05-21T14:45:33.776Z,74.10
2019-05-21T14:47:59.927Z,70.63
2019-05-21T14:50:28.468Z,77.87
2019-05-21T14:52:56.854Z,72.80
2019-05-21T14:55:25.278Z,64.10
2019-05-21T14:57:53.759Z,65.23
2019-05-21T15:00:29.388Z,69.13
2019-05-21T15:02:57.840Z,64.67
2019-05-21T15:05:26.226Z,69.47
2019-05-21T15:07:54.687Z,75.80
2019-05-21T15:10:23.327Z,65.40
2019-05-21T15:12:51.751Z,63.83
2019-05-21T15:15:20.215Z,65.80
2019-05-21T15:17:48.700Z,70.73
2019-05-21T15:20:31.101Z,67.97
2019-05-21T15:22:59.483Z,65.43
2019-05-21T15:25:27.982Z,66.20
2019-05-21T15:27:56.458Z,73.10
2019-05-21T15:30:24.851Z,70.50
2019-05-21T15:32:53.259Z,63.13
2019-05-21T15:35:21.719Z,62.50
2019-05-21T15:37:50.486Z,61.93
2019-05-21T15:40:19.478Z,60.67
2019-05-21T15:42:52.504Z,63.17
2019-05-21T15:45:18.333Z,60.00
2019-05-21T15:47:46.728Z,61.77
2019-05-21T15:50:15.858Z,60.93
2019-05-21T15:52:44.259Z,65.73
2019-05-21T15:55:13.294Z,63.40
2019-05-21T15:57:41.694Z,65.67
2019-05-21T16:00:13.211Z,64.80
2019-05-21T16:02:41.647Z,63.30
2019-05-21T16:05:10.581Z,66.13
2019-05-21T16:07:38.988Z,68.60
2019-05-21T16:10:10.941Z,60.93
2019-05-21T16:12:39.428Z,62.47
2019-05-21T16:15:08.185Z,59.83
2019-05-21T16:17:36.994Z,61.43
2019-05-21T16:20:08.968Z,60.13
2019-05-21T16:22:37.351Z,63.07
2019-05-21T16:25:07.932Z,58.87
2019-05-21T16:27:36.336Z,59.83
2019-05-21T16:30:07.854Z,61.20
2019-05-21T16:32:36.334Z,62.57
2019-05-21T16:35:09.221Z,60.60
2019-05-21T16:37:37.986Z,61.50
2019-05-21T16:40:10.176Z,61.57
2019-05-21T16:42:38.569Z,63.07
2019-05-21T16:45:08.723Z,61.90
2019-05-21T16:47:45.824Z,61.60
2019-05-21T16:50:08.236Z,63.17
2019-05-21T16:52:37.922Z,62.20
2019-05-21T16:55:09.037Z,61.97
2019-05-21T16:57:37.533Z,61.30
2019-05-21T17:00:10.242Z,60.47
2019-05-21T17:02:43.606Z,60.33
2019-05-21T17:05:13.975Z,60.80
2019-05-21T17:07:42.362Z,57.90
2019-05-21T17:10:11.003Z,57.17
2019-05-21T17:12:39.407Z,61.03
2019-05-21T17:15:14.236Z,59.80
2019-05-21T17:17:45.694Z,58.73
2019-05-21T17:20:28.624Z,56.43
2019-05-21T17:22:50.915Z,60.00
2019-05-21T17:25:21.501Z,59.50
2019-05-21T17:27:50.199Z,58.83
2019-05-21T17:30:22.972Z,56.93
2019-05-21T17:32:51.644Z,57.10
2019-05-21T17:35:20.185Z,55.10
2019-05-21T17:37:48.920Z,56.57
2019-05-21T17:40:17.887Z,56.87
2019-05-21T17:42:46.445Z,56.07
2019-05-21T17:45:15.401Z,57.67
2019-05-21T17:47:43.809Z,56.37
2019-05-21T17:50:13.063Z,56.47
2019-05-21T17:52:41.614Z,60.47
2019-05-21T17:55:10.253Z,56.50
2019-05-21T17:57:38.750Z,59.97
2019-05-21T18:00:10.116Z,57.63
2019-05-21T18:02:40.399Z,55.77
2019-05-21T18:05:10.315Z,54.47
2019-05-21T18:07:39.651Z,56.17
2019-05-21T18:10:09.961Z,56.17
2019-05-21T18:12:38.732Z,58.00
2019-05-21T18:15:10.173Z,58.37
2019-05-21T18:17:39.294Z,57.43
2019-05-21T18:20:08.500Z,57.70
2019-05-21T18:22:38.933Z,59.57
2019-05-21T18:25:08.242Z,57.10
2019-05-21T18:27:37.177Z,60.50
2019-05-21T18:30:07.879Z,59.27
2019-05-21T18:32:36.947Z,59.10
2019-05-21T18:35:08.957Z,58.83
2019-05-21T18:37:38.904Z,58.07
2019-05-21T18:40:09.372Z,68.30
2019-05-21T18:42:37.785Z,62.90
2019-05-21T18:45:11.013Z,61.93
2019-05-21T18:47:39.492Z,59.50
2019-05-21T18:50:11.576Z,61.80
2019-05-21T18:52:40.052Z,58.93
2019-05-21T18:55:10.180Z,63.23
2019-05-21T18:57:38.603Z,59.43
2019-05-21T19:00:11.718Z,62.23
2019-05-21T19:02:40.447Z,64.10
2019-05-21T19:05:09.634Z,60.40
2019-05-21T19:07:38.023Z,58.73
2019-05-21T19:10:10.635Z,61.37
2019-05-21T19:12:39.671Z,59.07
2019-05-21T19:15:09.923Z,65.47
2019-05-21T19:17:38.427Z,56.33
2019-05-21T19:20:10.366Z,69.20
2019-05-21T19:22:38.819Z,62.30
2019-05-21T19:25:08.148Z,66.33
2019-05-21T19:27:36.528Z,64.63
2019-05-21T19:30:07.232Z,68.27
2019-05-21T19:32:35.807Z,62.47
2019-05-21T19:35:05.547Z,68.53
2019-05-21T19:37:34.011Z,58.73
2019-05-21T19:40:03.092Z,65.23
2019-05-21T19:42:31.648Z,58.30
2019-05-21T19:45:01.148Z,56.17
2019-05-21T19:47:29.505Z,54.93
2019-05-21T19:49:59.472Z,64.30
2019-05-21T19:52:27.935Z,54.20
2019-05-21T19:54:56.430Z,52.57
2019-05-21T20:00:43.248Z,53.10
2019-05-21T20:03:12.675Z,56.97
2019-05-21T20:05:41.066Z,56.27
2019-05-21T20:08:10.065Z,57.30
2019-05-21T20:10:38.566Z,55.43
2019-05-21T20:13:07.227Z,56.10
2019-05-21T20:15:35.687Z,59.90
2019-05-21T20:18:07.556Z,59.67
2019-05-21T20:20:35.038Z,61.83
2019-05-21T20:23:08.270Z,54.33
2019-05-21T20:25:35.433Z,55.27
2019-05-21T20:28:05.637Z,59.17
2019-05-21T20:30:34.701Z,56.60
2019-05-21T20:33:03.104Z,60.00
2019-05-21T20:35:31.978Z,56.67
2019-05-21T20:38:00.365Z,55.60
2019-05-21T20:40:29.045Z,59.57
2019-05-21T20:42:58.077Z,61.27
2019-05-21T20:45:27.803Z,60.70
2019-05-21T20:47:57.629Z,55.80
2019-05-21T20:50:26.292Z,52.73
2019-05-21T20:52:54.716Z,53.03
2019-05-21T20:55:24.044Z,55.63
2019-05-21T20:57:53.274Z,51.10
2019-05-21T21:00:25.155Z,50.33
2019-05-21T21:02:53.628Z,54.10
2019-05-21T21:05:22.253Z,52.50
2019-05-21T21:07:51.179Z,59.80
2019-05-21T21:10:19.811Z,50.30
2019-05-21T21:12:48.575Z,50.40
2019-05-21T21:15:17.184Z,49.80
2019-05-21T21:17:45.940Z,47.13
2019-05-21T21:20:14.892Z,47.27
2019-05-21T21:22:43.450Z,50.00
2019-05-21T21:25:12.539Z,51.13
2019-05-21T21:27:41.780Z,50.47
2019-05-21T21:30:10.789Z,54.07
2019-05-21T21:32:39.418Z,49.30
2019-05-21T21:35:10.014Z,61.80
2019-05-21T21:37:38.580Z,54.27
2019-05-21T21:40:10.831Z,51.43
2019-05-21T21:42:40.603Z,50.07
2019-05-21T21:45:09.918Z,54.83
2019-05-21T21:47:39.749Z,51.27
2019-05-21T21:50:18.751Z,51.17
2019-05-21T21:52:47.782Z,60.80
2019-05-21T21:55:17.826Z,50.93
2019-05-21T21:57:46.497Z,51.87
2019-05-21T22:00:49.927Z,53.00
2019-05-21T22:03:20.202Z,54.53
2019-05-21T22:05:49.506Z,55.73
2019-05-21T22:08:18.086Z,51.37
2019-05-21T22:10:46.605Z,52.47
2019-05-21T22:13:15.073Z,53.00
2019-05-21T22:15:43.463Z,56.17
2019-05-21T22:18:14.385Z,65.70
2019-05-21T22:20:43.519Z,53.67
2019-05-21T22:23:12.857Z,56.33
2019-05-21T22:25:41.620Z,55.03
2019-05-21T22:28:10.268Z,52.40
2019-05-21T22:30:38.978Z,54.83
2019-05-21T22:33:07.564Z,53.67
2019-05-21T22:35:36.348Z,55.17
2019-05-21T22:38:04.745Z,55.70
2019-05-21T22:40:33.521Z,55.10
2019-05-21T22:43:01.932Z,57.20
2019-05-21T22:45:30.485Z,56.53
2019-05-21T22:47:59.181Z,71.93
2019-05-21T22:50:27.963Z,58.67
2019-05-21T22:52:56.345Z,57.77
2019-05-21T22:55:25.091Z,60.13
2019-05-21T22:57:53.941Z,67.80
2019-05-21T23:00:22.934Z,63.60
2019-05-21T23:02:52.045Z,56.60
2019-05-21T23:05:23.000Z,61.03
2019-05-21T23:07:50.555Z,59.17
2019-05-21T23:10:20.061Z,62.40
2019-05-21T23:12:48.589Z,56.90
2019-05-21T23:15:24.858Z,59.37
2019-05-21T23:17:47.813Z,59.03
2019-05-21T23:20:17.022Z,59.20
2019-05-21T23:22:47.235Z,68.27
2019-05-21T23:25:17.035Z,56.97
2019-05-21T23:27:45.890Z,56.57
2019-05-21T23:30:16.247Z,59.30
2019-05-21T23:32:45.425Z,54.40
2019-05-21T23:35:14.312Z,55.37
2019-05-21T23:37:46.215Z,52.63
2019-05-21T23:40:17.340Z,52.93
2019-05-21T23:42:47.058Z,53.00
2019-05-21T23:45:15.671Z,52.33
2019-05-21T23:47:44.054Z,52.23
2019-05-21T23:50:15.057Z,54.40
2019-05-21T23:52:44.233Z,56.83
2019-05-21T23:55:14.460Z,55.57
2019-05-21T23:57:43.119Z,62.53
